sensor_id;sensor_type;location;lat;lon;timestamp;P1;durP1;ratioP1;P2;durP2;ratioP2
27704;SDS011;15109;50.992;6.918;2022-08-06T00:03:10;2.47;;;0.40;;
27704;SDS011;15109;50.992;6.918;2022-08-06T00:06:31;0.63;;;0.45;;
27704;SDS011;15109;50.992;6.918;2022-08-06T00:09:52;0.98;;;0.60;;
27704;SDS011;15109;50.992;6.918;2022-08-06T00:13:14;1.75;;;0.40;;
27704;SDS011;15109;50.992;6.918;2022-08-06T00:16:35;2.30;;;0.70;;
27704;SDS011;15109;50.992;6.918;2022-08-06T00:19:56;0.40;;;0.28;;
27704;SDS011;15109;50.992;6.918;2022-08-06T00:23:17;0.88;;;0.55;;
27704;SDS011;15109;50.992;6.918;2022-08-06T00:26:39;0.28;;;0.20;;
27704;SDS011;15109;50.992;6.918;2022-08-06T00:30:00;1.77;;;0.52;;
27704;SDS011;15109;50.992;6.918;2022-08-06T00:33:21;2.20;;;0.40;;
27704;SDS011;15109;50.992;6.918;2022-08-06T00:36:42;0.47;;;0.35;;
27704;SDS011;15109;50.992;6.918;2022-08-06T00:40:04;0.77;;;0.43;;
27704;SDS011;15109;50.992;6.918;2022-08-06T00:43:26;0.73;;;0.45;;
27704;SDS011;15109;50.992;6.918;2022-08-06T00:46:47;0.20;;;0.20;;
27704;SDS011;15109;50.992;6.918;2022-08-06T00:50:09;1.02;;;0.52;;
27704;SDS011;15109;50.992;6.918;2022-08-06T00:53:30;2.72;;;0.38;;
27704;SDS011;15109;50.992;6.918;2022-08-06T00:56:51;1.42;;;0.50;;
27704;SDS011;15109;50.992;6.918;2022-08-06T01:00:12;5.05;;;0.95;;
27704;SDS011;15109;50.992;6.918;2022-08-06T01:03:34;0.90;;;0.60;;
27704;SDS011;15109;50.992;6.918;2022-08-06T01:06:55;0.40;;;0.30;;
27704;SDS011;15109;50.992;6.918;2022-08-06T01:10:17;0.77;;;0.32;;
27704;SDS011;15109;50.992;6.918;2022-08-06T01:13:38;0.40;;;0.40;;
27704;SDS011;15109;50.992;6.918;2022-08-06T01:17:01;0.17;;;0.17;;
27704;SDS011;15109;50.992;6.918;2022-08-06T01:24:05;0.30;;;0.30;;
27704;SDS011;15109;50.992;6.918;2022-08-06T01:28:10;0.50;;;0.50;;
27704;SDS011;15109;50.992;6.918;2022-08-06T01:35:29;0.10;;;0.10;;
27704;SDS011;15109;50.992;6.918;2022-08-06T01:38:55;0.25;;;0.25;;
27704;SDS011;15109;50.992;6.918;2022-08-06T01:42:19;2.75;;;0.63;;
27704;SDS011;15109;50.992;6.918;2022-08-06T01:45:42;0.80;;;0.45;;
27704;SDS011;15109;50.992;6.918;2022-08-06T01:49:04;1.20;;;0.40;;
27704;SDS011;15109;50.992;6.918;2022-08-06T01:52:27;0.30;;;0.30;;
27704;SDS011;15109;50.992;6.918;2022-08-06T01:56:09;0.38;;;0.32;;
27704;SDS011;15109;50.992;6.918;2022-08-06T01:59:33;3.00;;;0.77;;
27704;SDS011;15109;50.992;6.918;2022-08-06T02:03:00;4.00;;;0.73;;
27704;SDS011;15109;50.992;6.918;2022-08-06T02:06:27;1.38;;;0.30;;
27704;SDS011;15109;50.992;6.918;2022-08-06T02:09:52;0.20;;;0.20;;
27704;SDS011;15109;50.992;6.918;2022-08-06T02:13:15;0.52;;;0.38;;
27704;SDS011;15109;50.992;6.918;2022-08-06T02:16:41;3.00;;;0.85;;
27704;SDS011;15109;50.992;6.918;2022-08-06T02:20:03;0.20;;;0.20;;
27704;SDS011;15109;50.992;6.918;2022-08-06T02:23:26;2.03;;;0.70;;
27704;SDS011;15109;50.992;6.918;2022-08-06T02:26:49;0.28;;;0.28;;
27704;SDS011;15109;50.992;6.918;2022-08-06T02:30:12;0.65;;;0.47;;
27704;SDS011;15109;50.992;6.918;2022-08-06T02:33:33;1.33;;;0.57;;
27704;SDS011;15109;50.992;6.918;2022-08-06T02:36:56;0.65;;;0.60;;
27704;SDS011;15109;50.992;6.918;2022-08-06T02:40:22;1.45;;;0.35;;
27704;SDS011;15109;50.992;6.918;2022-08-06T02:48:02;2.42;;;0.85;;
27704;SDS011;15109;50.992;6.918;2022-08-06T02:51:36;0.60;;;0.45;;
27704;SDS011;15109;50.992;6.918;2022-08-06T02:55:05;1.10;;;0.60;;
27704;SDS011;15109;50.992;6.918;2022-08-06T02:58:32;0.68;;;0.35;;
27704;SDS011;15109;50.992;6.918;2022-08-06T03:01:59;1.45;;;0.65;;
27704;SDS011;15109;50.992;6.918;2022-08-06T03:05:22;0.40;;;0.40;;
27704;SDS011;15109;50.992;6.918;2022-08-06T03:08:44;0.77;;;0.50;;
27704;SDS011;15109;50.992;6.918;2022-08-06T03:12:06;0.90;;;0.50;;
27704;SDS011;15109;50.992;6.918;2022-08-06T03:15:29;0.45;;;0.43;;
27704;SDS011;15109;50.992;6.918;2022-08-06T03:18:54;0.50;;;0.30;;
27704;SDS011;15109;50.992;6.918;2022-08-06T03:22:18;1.10;;;0.52;;
27704;SDS011;15109;50.992;6.918;2022-08-06T03:25:40;0.52;;;0.40;;
27704;SDS011;15109;50.992;6.918;2022-08-06T03:29:04;0.73;;;0.45;;
27704;SDS011;15109;50.992;6.918;2022-08-06T03:32:26;0.25;;;0.20;;
27704;SDS011;15109;50.992;6.918;2022-08-06T03:35:48;0.35;;;0.35;;
27704;SDS011;15109;50.992;6.918;2022-08-06T03:39:12;3.53;;;0.68;;
27704;SDS011;15109;50.992;6.918;2022-08-06T03:42:35;0.82;;;0.40;;
27704;SDS011;15109;50.992;6.918;2022-08-06T03:45:58;0.52;;;0.40;;
27704;SDS011;15109;50.992;6.918;2022-08-06T03:53:15;0.52;;;0.40;;
27704;SDS011;15109;50.992;6.918;2022-08-06T03:56:39;0.63;;;0.32;;
27704;SDS011;15109;50.992;6.918;2022-08-06T04:00:07;1.85;;;0.60;;
27704;SDS011;15109;50.992;6.918;2022-08-06T04:03:32;0.52;;;0.35;;
27704;SDS011;15109;50.992;6.918;2022-08-06T04:06:57;1.13;;;0.60;;
27704;SDS011;15109;50.992;6.918;2022-08-06T04:10:19;10.52;;;1.13;;
27704;SDS011;15109;50.992;6.918;2022-08-06T04:13:42;0.65;;;0.40;;
27704;SDS011;15109;50.992;6.918;2022-08-06T04:17:04;0.80;;;0.43;;
27704;SDS011;15109;50.992;6.918;2022-08-06T04:20:26;0.30;;;0.30;;
27704;SDS011;15109;50.992;6.918;2022-08-06T04:23:49;0.47;;;0.43;;
27704;SDS011;15109;50.992;6.918;2022-08-06T04:27:11;1.65;;;0.70;;
27704;SDS011;15109;50.992;6.918;2022-08-06T04:30:34;0.40;;;0.28;;
27704;SDS011;15109;50.992;6.918;2022-08-06T04:33:56;0.63;;;0.40;;
27704;SDS011;15109;50.992;6.918;2022-08-06T04:37:20;1.08;;;0.65;;
27704;SDS011;15109;50.992;6.918;2022-08-06T04:40:41;1.05;;;0.70;;
27704;SDS011;15109;50.992;6.918;2022-08-06T04:44:02;1.67;;;0.73;;
27704;SDS011;15109;50.992;6.918;2022-08-06T04:47:24;2.80;;;1.08;;
27704;SDS011;15109;50.992;6.918;2022-08-06T04:50:45;0.70;;;0.45;;
27704;SDS011;15109;50.992;6.918;2022-08-06T04:54:06;1.65;;;0.95;;
27704;SDS011;15109;50.992;6.918;2022-08-06T04:57:28;0.38;;;0.35;;
27704;SDS011;15109;50.992;6.918;2022-08-06T05:00:49;1.05;;;0.70;;
27704;SDS011;15109;50.992;6.918;2022-08-06T05:04:11;1.58;;;0.80;;
27704;SDS011;15109;50.992;6.918;2022-08-06T05:07:32;1.38;;;0.63;;
27704;SDS011;15109;50.992;6.918;2022-08-06T05:11:07;0.85;;;0.73;;
27704;SDS011;15109;50.992;6.918;2022-08-06T05:18:25;0.68;;;0.40;;
27704;SDS011;15109;50.992;6.918;2022-08-06T05:21:50;1.63;;;0.60;;
27704;SDS011;15109;50.992;6.918;2022-08-06T05:25:12;1.70;;;0.70;;
27704;SDS011;15109;50.992;6.918;2022-08-06T05:28:34;1.65;;;0.77;;
27704;SDS011;15109;50.992;6.918;2022-08-06T05:32:00;1.90;;;0.70;;
27704;SDS011;15109;50.992;6.918;2022-08-06T05:35:22;2.40;;;0.75;;
27704;SDS011;15109;50.992;6.918;2022-08-06T05:38:43;0.63;;;0.63;;
27704;SDS011;15109;50.992;6.918;2022-08-06T05:42:04;1.33;;;0.90;;
27704;SDS011;15109;50.992;6.918;2022-08-06T05:45:25;2.25;;;1.00;;
27704;SDS011;15109;50.992;6.918;2022-08-06T05:52:25;3.42;;;1.25;;
27704;SDS011;15109;50.992;6.918;2022-08-06T05:55:51;2.28;;;1.02;;
27704;SDS011;15109;50.992;6.918;2022-08-06T05:59:19;0.88;;;0.70;;
27704;SDS011;15109;50.992;6.918;2022-08-06T06:02:44;2.22;;;1.20;;
27704;SDS011;15109;50.992;6.918;2022-08-06T06:06:08;4.78;;;1.15;;
27704;SDS011;15109;50.992;6.918;2022-08-06T06:09:31;3.03;;;1.33;;
27704;SDS011;15109;50.992;6.918;2022-08-06T06:12:54;1.13;;;0.80;;
27704;SDS011;15109;50.992;6.918;2022-08-06T06:16:26;3.70;;;1.45;;
27704;SDS011;15109;50.992;6.918;2022-08-06T06:20:02;3.10;;;0.98;;
27704;SDS011;15109;50.992;6.918;2022-08-06T06:27:29;2.70;;;1.33;;
27704;SDS011;15109;50.992;6.918;2022-08-06T06:34:30;7.32;;;1.88;;
27704;SDS011;15109;50.992;6.918;2022-08-06T06:41:46;1.27;;;0.90;;
27704;SDS011;15109;50.992;6.918;2022-08-06T06:45:20;1.17;;;0.82;;
27704;SDS011;15109;50.992;6.918;2022-08-06T06:48:54;1.90;;;1.45;;
27704;SDS011;15109;50.992;6.918;2022-08-06T06:52:22;1.98;;;1.15;;
27704;SDS011;15109;50.992;6.918;2022-08-06T06:55:47;1.55;;;0.60;;
27704;SDS011;15109;50.992;6.918;2022-08-06T06:59:16;3.22;;;1.27;;
27704;SDS011;15109;50.992;6.918;2022-08-06T07:02:42;1.50;;;0.80;;
27704;SDS011;15109;50.992;6.918;2022-08-06T07:06:06;1.05;;;0.70;;
27704;SDS011;15109;50.992;6.918;2022-08-06T07:09:29;0.55;;;0.52;;
27704;SDS011;15109;50.992;6.918;2022-08-06T07:12:54;3.03;;;1.02;;
27704;SDS011;15109;50.992;6.918;2022-08-06T07:16:18;1.17;;;0.80;;
27704;SDS011;15109;50.992;6.918;2022-08-06T07:19:41;0.90;;;0.63;;
27704;SDS011;15109;50.992;6.918;2022-08-06T07:23:07;0.68;;;0.63;;
27704;SDS011;15109;50.992;6.918;2022-08-06T07:26:30;0.88;;;0.60;;
27704;SDS011;15109;50.992;6.918;2022-08-06T07:29:51;1.50;;;0.75;;
27704;SDS011;15109;50.992;6.918;2022-08-06T07:33:15;2.03;;;0.77;;
27704;SDS011;15109;50.992;6.918;2022-08-06T07:36:39;0.20;;;0.20;;
27704;SDS011;15109;50.992;6.918;2022-08-06T07:40:15;0.98;;;0.50;;
27704;SDS011;15109;50.992;6.918;2022-08-06T07:43:42;0.10;;;0.10;;
27704;SDS011;15109;50.992;6.918;2022-08-06T07:47:06;0.43;;;0.37;;
27704;SDS011;15109;50.992;6.918;2022-08-06T07:50:29;0.20;;;0.20;;
27704;SDS011;15109;50.992;6.918;2022-08-06T07:53:52;0.10;;;0.10;;
27704;SDS011;15109;50.992;6.918;2022-08-06T07:57:15;1.58;;;0.40;;
27704;SDS011;15109;50.992;6.918;2022-08-06T08:00:37;0.50;;;0.50;;
27704;SDS011;15109;50.992;6.918;2022-08-06T08:04:00;1.48;;;0.50;;
27704;SDS011;15109;50.992;6.918;2022-08-06T08:07:40;3.80;;;0.40;;
27704;SDS011;15109;50.992;6.918;2022-08-06T08:11:02;0.75;;;0.35;;
27704;SDS011;15109;50.992;6.918;2022-08-06T08:14:23;0.80;;;0.40;;
27704;SDS011;15109;50.992;6.918;2022-08-06T08:17:46;1.17;;;0.47;;
27704;SDS011;15109;50.992;6.918;2022-08-06T08:21:07;0.10;;;0.10;;
27704;SDS011;15109;50.992;6.918;2022-08-06T08:24:30;0.55;;;0.30;;
27704;SDS011;15109;50.992;6.918;2022-08-06T08:27:53;0.65;;;0.35;;
27704;SDS011;15109;50.992;6.918;2022-08-06T08:31:14;0.65;;;0.40;;
27704;SDS011;15109;50.992;6.918;2022-08-06T08:34:35;0.43;;;0.25;;
27704;SDS011;15109;50.992;6.918;2022-08-06T08:37:56;0.70;;;0.40;;
27704;SDS011;15109;50.992;6.918;2022-08-06T08:41:19;0.10;;;0.10;;
27704;SDS011;15109;50.992;6.918;2022-08-06T08:44:44;1.13;;;0.38;;
27704;SDS011;15109;50.992;6.918;2022-08-06T08:48:06;0.22;;;0.15;;
27704;SDS011;15109;50.992;6.918;2022-08-06T08:51:32;0.30;;;0.15;;
27704;SDS011;15109;50.992;6.918;2022-08-06T08:55:06;0.10;;;0.10;;
27704;SDS011;15109;50.992;6.918;2022-08-06T08:58:30;1.35;;;0.50;;
27704;SDS011;15109;50.992;6.918;2022-08-06T09:01:52;4.07;;;0.75;;
27704;SDS011;15109;50.992;6.918;2022-08-06T09:05:13;0.85;;;0.32;;
27704;SDS011;15109;50.992;6.918;2022-08-06T09:08:35;2.53;;;0.57;;
27704;SDS011;15109;50.992;6.918;2022-08-06T09:11:59;0.38;;;0.20;;
27704;SDS011;15109;50.992;6.918;2022-08-06T09:15:23;0.10;;;0.10;;
27704;SDS011;15109;50.992;6.918;2022-08-06T09:18:44;0.60;;;0.32;;
27704;SDS011;15109;50.992;6.918;2022-08-06T09:22:05;0.10;;;0.10;;
27704;SDS011;15109;50.992;6.918;2022-08-06T09:28:57;0.10;;;0.10;;
27704;SDS011;15109;50.992;6.918;2022-08-06T09:32:35;0.20;;;0.20;;
27704;SDS011;15109;50.992;6.918;2022-08-06T09:35:59;0.63;;;0.32;;
27704;SDS011;15109;50.992;6.918;2022-08-06T09:39:36;0.10;;;0.10;;
27704;SDS011;15109;50.992;6.918;2022-08-06T09:43:05;0.47;;;0.30;;
27704;SDS011;15109;50.992;6.918;2022-08-06T09:46:48;0.30;;;0.20;;
27704;SDS011;15109;50.992;6.918;2022-08-06T09:50:11;0.25;;;0.20;;
27704;SDS011;15109;50.992;6.918;2022-08-06T09:53:35;0.10;;;0.10;;
27704;SDS011;15109;50.992;6.918;2022-08-06T09:57:12;0.20;;;0.10;;
27704;SDS011;15109;50.992;6.918;2022-08-06T10:00:34;0.10;;;0.10;;
27704;SDS011;15109;50.992;6.918;2022-08-06T10:03:58;0.15;;;0.15;;
27704;SDS011;15109;50.992;6.918;2022-08-06T10:07:28;2.85;;;0.47;;
27704;SDS011;15109;50.992;6.918;2022-08-06T10:10:53;0.00;;;0.00;;
27704;SDS011;15109;50.992;6.918;2022-08-06T10:14:24;0.00;;;0.00;;
27704;SDS011;15109;50.992;6.918;2022-08-06T10:17:45;0.00;;;0.00;;
27704;SDS011;15109;50.992;6.918;2022-08-06T10:21:11;0.10;;;0.10;;
27704;SDS011;15109;50.992;6.918;2022-08-06T10:24:35;0.10;;;0.10;;
27704;SDS011;15109;50.992;6.918;2022-08-06T10:27:58;0.13;;;0.13;;
27704;SDS011;15109;50.992;6.918;2022-08-06T10:31:21;0.10;;;0.10;;
27704;SDS011;15109;50.992;6.918;2022-08-06T10:34:43;0.35;;;0.10;;
27704;SDS011;15109;50.992;6.918;2022-08-06T10:38:09;0.20;;;0.20;;
27704;SDS011;15109;50.992;6.918;2022-08-06T10:41:35;0.10;;;0.10;;
27704;SDS011;15109;50.992;6.918;2022-08-06T10:45:02;0.15;;;0.15;;
27704;SDS011;15109;50.992;6.918;2022-08-06T10:48:23;7.68;;;0.35;;
27704;SDS011;15109;50.992;6.918;2022-08-06T10:51:44;0.80;;;0.32;;
27704;SDS011;15109;50.992;6.918;2022-08-06T10:55:08;0.35;;;0.20;;
27704;SDS011;15109;50.992;6.918;2022-08-06T10:58:31;0.10;;;0.10;;
27704;SDS011;15109;50.992;6.918;2022-08-06T11:06:22;0.15;;;0.15;;
27704;SDS011;15109;50.992;6.918;2022-08-06T11:17:09;0.10;;;0.10;;
27704;SDS011;15109;50.992;6.918;2022-08-06T11:23:59;0.95;;;0.50;;
27704;SDS011;15109;50.992;6.918;2022-08-06T11:31:29;0.10;;;0.10;;
27704;SDS011;15109;50.992;6.918;2022-08-06T11:35:00;0.10;;;0.10;;
27704;SDS011;15109;50.992;6.918;2022-08-06T11:42:40;1.30;;;0.45;;
27704;SDS011;15109;50.992;6.918;2022-08-06T11:49:46;0.45;;;0.20;;
27704;SDS011;15109;50.992;6.918;2022-08-06T11:53:08;0.30;;;0.20;;
27704;SDS011;15109;50.992;6.918;2022-08-06T11:56:29;0.20;;;0.20;;
27704;SDS011;15109;50.992;6.918;2022-08-06T12:03:15;0.47;;;0.20;;
27704;SDS011;15109;50.992;6.918;2022-08-06T12:14:49;0.10;;;0.10;;
27704;SDS011;15109;50.992;6.918;2022-08-06T12:18:13;0.10;;;0.10;;
27704;SDS011;15109;50.992;6.918;2022-08-06T12:21:34;0.10;;;0.10;;
27704;SDS011;15109;50.992;6.918;2022-08-06T12:24:57;0.20;;;0.20;;
27704;SDS011;15109;50.992;6.918;2022-08-06T12:28:20;0.57;;;0.32;;
27704;SDS011;15109;50.992;6.918;2022-08-06T12:31:42;0.03;;;0.03;;
27704;SDS011;15109;50.992;6.918;2022-08-06T12:35:08;0.45;;;0.30;;
27704;SDS011;15109;50.992;6.918;2022-08-06T12:38:31;0.00;;;0.00;;
27704;SDS011;15109;50.992;6.918;2022-08-06T12:41:54;0.15;;;0.08;;
27704;SDS011;15109;50.992;6.918;2022-08-06T12:45:22;0.10;;;0.10;;
27704;SDS011;15109;50.992;6.918;2022-08-06T12:48:45;0.00;;;0.00;;
27704;SDS011;15109;50.992;6.918;2022-08-06T12:52:12;5.15;;;0.80;;
27704;SDS011;15109;50.992;6.918;2022-08-06T12:59:08;0.05;;;0.05;;
27704;SDS011;15109;50.992;6.918;2022-08-06T13:02:32;0.10;;;0.10;;
27704;SDS011;15109;50.992;6.918;2022-08-06T13:05:54;0.10;;;0.10;;
27704;SDS011;15109;50.992;6.918;2022-08-06T13:09:16;0.10;;;0.10;;
27704;SDS011;15109;50.992;6.918;2022-08-06T13:12:39;0.17;;;0.17;;
27704;SDS011;15109;50.992;6.918;2022-08-06T13:16:02;0.30;;;0.13;;
27704;SDS011;15109;50.992;6.918;2022-08-06T13:19:25;0.17;;;0.17;;
27704;SDS011;15109;50.992;6.918;2022-08-06T13:22:50;1.30;;;0.43;;
27704;SDS011;15109;50.992;6.918;2022-08-06T13:29:32;0.30;;;0.20;;
27704;SDS011;15109;50.992;6.918;2022-08-06T13:32:53;0.20;;;0.10;;
27704;SDS011;15109;50.992;6.918;2022-08-06T13:36:14;0.43;;;0.20;;
27704;SDS011;15109;50.992;6.918;2022-08-06T13:39:35;0.38;;;0.22;;
27704;SDS011;15109;50.992;6.918;2022-08-06T13:42:57;0.10;;;0.10;;
27704;SDS011;15109;50.992;6.918;2022-08-06T13:46:18;0.20;;;0.20;;
27704;SDS011;15109;50.992;6.918;2022-08-06T13:49:40;0.10;;;0.10;;
27704;SDS011;15109;50.992;6.918;2022-08-06T13:53:01;0.63;;;0.43;;
27704;SDS011;15109;50.992;6.918;2022-08-06T13:56:23;0.17;;;0.17;;
27704;SDS011;15109;50.992;6.918;2022-08-06T13:59:45;0.10;;;0.10;;
27704;SDS011;15109;50.992;6.918;2022-08-06T14:03:06;0.20;;;0.20;;
27704;SDS011;15109;50.992;6.918;2022-08-06T14:06:27;0.22;;;0.22;;
27704;SDS011;15109;50.992;6.918;2022-08-06T14:09:48;0.10;;;0.10;;
27704;SDS011;15109;50.992;6.918;2022-08-06T14:13:09;0.20;;;0.20;;
27704;SDS011;15109;50.992;6.918;2022-08-06T14:19:57;0.10;;;0.10;;
27704;SDS011;15109;50.992;6.918;2022-08-06T14:23:18;0.10;;;0.10;;
27704;SDS011;15109;50.992;6.918;2022-08-06T14:26:40;0.95;;;0.40;;
27704;SDS011;15109;50.992;6.918;2022-08-06T14:30:01;0.20;;;0.20;;
27704;SDS011;15109;50.992;6.918;2022-08-06T14:33:22;0.20;;;0.15;;
27704;SDS011;15109;50.992;6.918;2022-08-06T14:36:43;0.30;;;0.25;;
27704;SDS011;15109;50.992;6.918;2022-08-06T14:40:04;0.52;;;0.30;;
27704;SDS011;15109;50.992;6.918;2022-08-06T14:43:26;0.17;;;0.17;;
27704;SDS011;15109;50.992;6.918;2022-08-06T14:47:06;0.77;;;0.43;;
27704;SDS011;15109;50.992;6.918;2022-08-06T14:50:28;0.47;;;0.30;;
27704;SDS011;15109;50.992;6.918;2022-08-06T14:53:49;0.20;;;0.20;;
27704;SDS011;15109;50.992;6.918;2022-08-06T14:57:10;0.10;;;0.10;;
27704;SDS011;15109;50.992;6.918;2022-08-06T15:00:32;0.65;;;0.30;;
27704;SDS011;15109;50.992;6.918;2022-08-06T15:03:53;0.30;;;0.20;;
27704;SDS011;15109;50.992;6.918;2022-08-06T15:07:14;0.15;;;0.15;;
27704;SDS011;15109;50.992;6.918;2022-08-06T15:10:35;0.10;;;0.10;;
27704;SDS011;15109;50.992;6.918;2022-08-06T15:13:57;0.43;;;0.30;;
27704;SDS011;15109;50.992;6.918;2022-08-06T15:17:18;0.13;;;0.13;;
27704;SDS011;15109;50.992;6.918;2022-08-06T15:20:42;0.22;;;0.20;;
27704;SDS011;15109;50.992;6.918;2022-08-06T15:24:03;0.45;;;0.22;;
27704;SDS011;15109;50.992;6.918;2022-08-06T15:27:24;0.30;;;0.30;;
27704;SDS011;15109;50.992;6.918;2022-08-06T15:30:45;0.10;;;0.10;;
27704;SDS011;15109;50.992;6.918;2022-08-06T15:34:06;0.45;;;0.32;;
27704;SDS011;15109;50.992;6.918;2022-08-06T15:37:28;1.25;;;0.22;;
27704;SDS011;15109;50.992;6.918;2022-08-06T15:40:49;0.25;;;0.25;;
27704;SDS011;15109;50.992;6.918;2022-08-06T15:44:10;0.10;;;0.10;;
27704;SDS011;15109;50.992;6.918;2022-08-06T15:47:31;0.10;;;0.10;;
27704;SDS011;15109;50.992;6.918;2022-08-06T15:50:52;0.17;;;0.17;;
27704;SDS011;15109;50.992;6.918;2022-08-06T15:54:13;0.40;;;0.20;;
27704;SDS011;15109;50.992;6.918;2022-08-06T15:57:34;0.80;;;0.30;;
27704;SDS011;15109;50.992;6.918;2022-08-06T16:00:56;0.20;;;0.20;;
27704;SDS011;15109;50.992;6.918;2022-08-06T16:04:17;0.20;;;0.20;;
27704;SDS011;15109;50.992;6.918;2022-08-06T16:07:38;0.10;;;0.10;;
27704;SDS011;15109;50.992;6.918;2022-08-06T16:10:59;0.20;;;0.20;;
27704;SDS011;15109;50.992;6.918;2022-08-06T16:14:20;0.10;;;0.10;;
27704;SDS011;15109;50.992;6.918;2022-08-06T16:17:41;0.10;;;0.10;;
27704;SDS011;15109;50.992;6.918;2022-08-06T16:21:03;0.30;;;0.25;;
27704;SDS011;15109;50.992;6.918;2022-08-06T16:24:24;0.28;;;0.28;;
27704;SDS011;15109;50.992;6.918;2022-08-06T16:27:45;0.10;;;0.10;;
27704;SDS011;15109;50.992;6.918;2022-08-06T16:31:06;1.27;;;0.40;;
27704;SDS011;15109;50.992;6.918;2022-08-06T16:34:27;0.40;;;0.22;;
27704;SDS011;15109;50.992;6.918;2022-08-06T16:37:49;0.88;;;0.35;;
27704;SDS011;15109;50.992;6.918;2022-08-06T16:41:11;0.20;;;0.20;;
27704;SDS011;15109;50.992;6.918;2022-08-06T16:44:32;0.85;;;0.28;;
27704;SDS011;15109;50.992;6.918;2022-08-06T16:47:54;0.10;;;0.10;;
27704;SDS011;15109;50.992;6.918;2022-08-06T16:51:16;0.55;;;0.28;;
27704;SDS011;15109;50.992;6.918;2022-08-06T16:54:37;0.50;;;0.30;;
27704;SDS011;15109;50.992;6.918;2022-08-06T16:57:58;0.15;;;0.15;;
27704;SDS011;15109;50.992;6.918;2022-08-06T17:01:20;0.40;;;0.20;;
27704;SDS011;15109;50.992;6.918;2022-08-06T17:04:41;0.40;;;0.30;;
27704;SDS011;15109;50.992;6.918;2022-08-06T17:08:02;0.13;;;0.13;;
27704;SDS011;15109;50.992;6.918;2022-08-06T17:11:23;0.20;;;0.20;;
27704;SDS011;15109;50.992;6.918;2022-08-06T17:14:45;0.20;;;0.20;;
27704;SDS011;15109;50.992;6.918;2022-08-06T17:18:06;0.10;;;0.10;;
27704;SDS011;15109;50.992;6.918;2022-08-06T17:21:27;0.63;;;0.30;;
27704;SDS011;15109;50.992;6.918;2022-08-06T17:24:48;0.55;;;0.28;;
27704;SDS011;15109;50.992;6.918;2022-08-06T17:28:09;0.30;;;0.30;;
27704;SDS011;15109;50.992;6.918;2022-08-06T17:31:30;0.40;;;0.30;;
27704;SDS011;15109;50.992;6.918;2022-08-06T17:34:51;0.15;;;0.15;;
27704;SDS011;15109;50.992;6.918;2022-08-06T17:38:12;0.40;;;0.13;;
27704;SDS011;15109;50.992;6.918;2022-08-06T17:41:33;0.15;;;0.10;;
27704;SDS011;15109;50.992;6.918;2022-08-06T17:44:54;0.65;;;0.22;;
27704;SDS011;15109;50.992;6.918;2022-08-06T17:48:15;0.40;;;0.20;;
27704;SDS011;15109;50.992;6.918;2022-08-06T17:51:37;0.32;;;0.20;;
27704;SDS011;15109;50.992;6.918;2022-08-06T17:54:58;5.07;;;0.20;;
27704;SDS011;15109;50.992;6.918;2022-08-06T17:58:19;0.10;;;0.10;;
27704;SDS011;15109;50.992;6.918;2022-08-06T18:01:44;0.63;;;0.10;;
27704;SDS011;15109;50.992;6.918;2022-08-06T18:05:07;0.73;;;0.30;;
27704;SDS011;15109;50.992;6.918;2022-08-06T18:08:28;1.27;;;0.45;;
27704;SDS011;15109;50.992;6.918;2022-08-06T18:11:49;0.00;;;0.00;;
27704;SDS011;15109;50.992;6.918;2022-08-06T18:15:10;0.00;;;0.00;;
27704;SDS011;15109;50.992;6.918;2022-08-06T18:18:31;0.30;;;0.20;;
27704;SDS011;15109;50.992;6.918;2022-08-06T18:21:52;0.30;;;0.20;;
27704;SDS011;15109;50.992;6.918;2022-08-06T18:25:13;1.20;;;0.35;;
27704;SDS011;15109;50.992;6.918;2022-08-06T18:28:35;0.28;;;0.20;;
27704;SDS011;15109;50.992;6.918;2022-08-06T18:31:56;0.88;;;0.30;;
27704;SDS011;15109;50.992;6.918;2022-08-06T18:35:17;0.15;;;0.15;;
27704;SDS011;15109;50.992;6.918;2022-08-06T18:38:38;0.20;;;0.13;;
27704;SDS011;15109;50.992;6.918;2022-08-06T18:42:00;1.13;;;0.35;;
27704;SDS011;15109;50.992;6.918;2022-08-06T18:45:21;0.80;;;0.30;;
27704;SDS011;15109;50.992;6.918;2022-08-06T18:48:42;1.88;;;0.38;;
27704;SDS011;15109;50.992;6.918;2022-08-06T18:52:03;0.55;;;0.30;;
27704;SDS011;15109;50.992;6.918;2022-08-06T18:55:25;0.20;;;0.20;;
27704;SDS011;15109;50.992;6.918;2022-08-06T18:58:47;0.20;;;0.20;;
27704;SDS011;15109;50.992;6.918;2022-08-06T19:02:09;0.10;;;0.10;;
27704;SDS011;15109;50.992;6.918;2022-08-06T19:05:30;0.73;;;0.30;;
27704;SDS011;15109;50.992;6.918;2022-08-06T19:08:52;0.20;;;0.20;;
27704;SDS011;15109;50.992;6.918;2022-08-06T19:12:13;0.10;;;0.10;;
27704;SDS011;15109;50.992;6.918;2022-08-06T19:15:35;0.70;;;0.45;;
27704;SDS011;15109;50.992;6.918;2022-08-06T19:18:56;0.10;;;0.10;;
27704;SDS011;15109;50.992;6.918;2022-08-06T19:22:17;0.40;;;0.20;;
27704;SDS011;15109;50.992;6.918;2022-08-06T19:25:46;1.00;;;0.28;;
27704;SDS011;15109;50.992;6.918;2022-08-06T19:29:07;0.75;;;0.32;;
27704;SDS011;15109;50.992;6.918;2022-08-06T19:32:28;0.17;;;0.17;;
27704;SDS011;15109;50.992;6.918;2022-08-06T19:35:49;0.43;;;0.35;;
27704;SDS011;15109;50.992;6.918;2022-08-06T19:39:11;0.38;;;0.30;;
27704;SDS011;15109;50.992;6.918;2022-08-06T19:42:33;1.55;;;0.45;;
27704;SDS011;15109;50.992;6.918;2022-08-06T19:45:54;0.20;;;0.20;;
27704;SDS011;15109;50.992;6.918;2022-08-06T19:49:15;0.77;;;0.40;;
27704;SDS011;15109;50.992;6.918;2022-08-06T19:52:36;0.20;;;0.10;;
27704;SDS011;15109;50.992;6.918;2022-08-06T19:55:57;0.88;;;0.50;;
27704;SDS011;15109;50.992;6.918;2022-08-06T19:59:18;1.88;;;0.43;;
27704;SDS011;15109;50.992;6.918;2022-08-06T20:02:39;0.52;;;0.30;;
27704;SDS011;15109;50.992;6.918;2022-08-06T20:06:07;0.70;;;0.45;;
27704;SDS011;15109;50.992;6.918;2022-08-06T20:09:29;0.20;;;0.20;;
27704;SDS011;15109;50.992;6.918;2022-08-06T20:12:50;0.28;;;0.28;;
27704;SDS011;15109;50.992;6.918;2022-08-06T20:16:11;1.20;;;0.50;;
27704;SDS011;15109;50.992;6.918;2022-08-06T20:19:32;0.30;;;0.30;;
27704;SDS011;15109;50.992;6.918;2022-08-06T20:22:53;0.38;;;0.20;;
27704;SDS011;15109;50.992;6.918;2022-08-06T20:26:14;1.00;;;0.45;;
27704;SDS011;15109;50.992;6.918;2022-08-06T20:29:35;0.98;;;0.52;;
27704;SDS011;15109;50.992;6.918;2022-08-06T20:32:57;3.00;;;0.80;;
27704;SDS011;15109;50.992;6.918;2022-08-06T20:36:18;0.35;;;0.30;;
27704;SDS011;15109;50.992;6.918;2022-08-06T20:39:39;0.35;;;0.22;;
27704;SDS011;15109;50.992;6.918;2022-08-06T20:43:00;1.17;;;0.65;;
27704;SDS011;15109;50.992;6.918;2022-08-06T20:46:21;0.20;;;0.20;;
27704;SDS011;15109;50.992;6.918;2022-08-06T20:49:42;1.15;;;0.57;;
27704;SDS011;15109;50.992;6.918;2022-08-06T20:53:04;0.50;;;0.50;;
27704;SDS011;15109;50.992;6.918;2022-08-06T20:56:25;0.68;;;0.60;;
27704;SDS011;15109;50.992;6.918;2022-08-06T20:59:46;2.40;;;0.98;;
27704;SDS011;15109;50.992;6.918;2022-08-06T21:03:07;0.38;;;0.30;;
27704;SDS011;15109;50.992;6.918;2022-08-06T21:06:28;0.50;;;0.50;;
27704;SDS011;15109;50.992;6.918;2022-08-06T21:09:49;1.75;;;0.68;;
27704;SDS011;15109;50.992;6.918;2022-08-06T21:13:11;1.45;;;0.55;;
27704;SDS011;15109;50.992;6.918;2022-08-06T21:16:32;1.75;;;0.60;;
27704;SDS011;15109;50.992;6.918;2022-08-06T21:19:53;0.40;;;0.30;;
27704;SDS011;15109;50.992;6.918;2022-08-06T21:23:14;0.52;;;0.28;;
27704;SDS011;15109;50.992;6.918;2022-08-06T21:26:36;0.10;;;0.10;;
27704;SDS011;15109;50.992;6.918;2022-08-06T21:29:57;0.10;;;0.10;;
27704;SDS011;15109;50.992;6.918;2022-08-06T21:33:18;0.28;;;0.28;;
27704;SDS011;15109;50.992;6.918;2022-08-06T21:36:39;0.10;;;0.10;;
27704;SDS011;15109;50.992;6.918;2022-08-06T21:40:00;1.75;;;0.57;;
27704;SDS011;15109;50.992;6.918;2022-08-06T21:43:22;0.20;;;0.20;;
27704;SDS011;15109;50.992;6.918;2022-08-06T21:46:45;0.30;;;0.30;;
27704;SDS011;15109;50.992;6.918;2022-08-06T21:50:07;1.02;;;0.32;;
27704;SDS011;15109;50.992;6.918;2022-08-06T21:53:28;0.25;;;0.25;;